Time;durP1;ratioP1;P1;durP2;ratioP2;P2;SDS_P1;SDS_P2;PMS_P1;PMS_P2;Temp;Humidity;BMP_temperature;BMP_pressure;BME280_temperature;BME280_humidity;BME280_pressure;Samples;Min_cycle;Max_cycle;Signal;HPM_P1;HPM_P2
2021/12/18 00:01:31;;;;;;;;;;;7.20;99.90;;;;;;5034531;28;19925;-82
2021/12/18 00:03:57;;;;;;;;;;;7.20;99.90;;;;;;5051328;28;20463;-83
2021/12/18 00:06:23;;;;;;;;;;;7.20;99.90;;;;;;5034163;28;19921;-82
2021/12/18 00:08:49;;;;;;;;;;;7.20;99.90;;;;;;5034872;28;19952;-82
2021/12/18 00:11:14;;;;;;;;;;;7.20;99.90;;;;;;5051004;28;19921;-82
2021/12/18 00:13:40;;;;;;;;;;;7.20;99.90;;;;;;5034657;28;19931;-82
2021/12/18 00:16:06;;;;;;;;;;;7.20;99.90;;;;;;5034691;28;19968;-82
2021/12/18 00:18:32;;;;;;;;;;;7.20;99.90;;;;;;5034206;28;20059;-82
2021/12/18 00:20:58;;;;;;;;;;;7.20;99.90;;;;;;5034470;28;20419;-82
2021/12/18 00:23:24;;;;;;;;;;;7.20;99.90;;;;;;5050971;28;19960;-83
2021/12/18 00:25:50;;;;;;;;;;;7.20;99.90;;;;;;5034683;28;19964;-82
2021/12/18 00:28:15;;;;;;;;;;;7.20;99.90;;;;;;5033807;28;19931;-82
2021/12/18 00:30:41;;;;;;;;;;;7.10;99.90;;;;;;5033718;28;19963;-82
2021/12/18 00:33:06;;;;;;;;;;;7.10;99.90;;;;;;5050412;28;19921;-82
2021/12/18 00:35:33;;;;;;;;;;;7.10;99.90;;;;;;5034185;28;19924;-82
2021/12/18 00:38:03;;;;;;;;;;;7.10;99.90;;;;;;5034347;28;19928;-82
2021/12/18 00:40:31;;;;;;;;;;;7.10;99.90;;;;;;5050806;28;19924;-82
2021/12/18 00:43:01;;;;;;;;;;;7.10;99.90;;;;;;5033892;28;19928;-83
2021/12/18 00:45:28;;;;;;;;;;;7.00;99.90;;;;;;5050738;28;19932;-82
2021/12/18 00:47:54;;;;;;;;;;;7.00;99.90;;;;;;5034142;28;20384;-82
2021/12/18 00:50:22;;;;;;;;;;;7.00;99.90;;;;;;5034060;28;19927;-82
2021/12/18 00:52:47;;;;;;;;;;;7.00;99.90;;;;;;5050344;28;19921;-82
2021/12/18 00:55:14;;;;;;;;;;;7.00;99.90;;;;;;5034182;28;19925;-83
2021/12/18 00:57:39;;;;;;;;;;;7.00;99.90;;;;;;5033780;28;19921;-82
2021/12/18 01:00:07;;;;;;;;;;;7.00;99.90;;;;;;5033986;28;19931;-82
2021/12/18 01:02:32;;;;;;;;;;;7.00;99.90;;;;;;5033455;28;20015;-83
2021/12/18 01:04:58;;;;;;;;;;;7.00;99.90;;;;;;5036631;28;20015;-82
2021/12/18 01:07:24;;;;;;;;;;;6.90;99.90;;;;;;5038090;28;20296;-83
2021/12/18 01:10:03;;;;;;;;;;;6.90;99.90;;;;;;5054337;28;20396;-82
2021/12/18 01:12:38;;;;;;;;;;;6.90;99.90;;;;;;5037727;28;20296;-82
2021/12/18 01:23:08;;;;;;;;;;;6.80;99.90;;;;;;5054058;28;19971;-83
2021/12/18 01:25:33;;;;;;;;;;;6.80;99.90;;;;;;5054431;28;19921;-82
2021/12/18 01:27:59;;;;;;;;;;;6.70;99.90;;;;;;5054282;28;19975;-82
2021/12/18 01:30:25;;;;;;;;;;;6.70;99.90;;;;;;5054009;28;19921;-82
2021/12/18 01:32:50;;;;;;;;;;;6.70;99.90;;;;;;5053754;28;20008;-82
2021/12/18 01:35:16;;;;;;;;;;;6.70;99.90;;;;;;5054464;28;19978;-82
2021/12/18 01:37:42;;;;;;;;;;;6.70;99.90;;;;;;5037241;28;19920;-82
2021/12/18 01:40:08;;;;;;;;;;;6.70;99.90;;;;;;5037293;28;19921;-82
2021/12/18 01:45:32;;;;;;;;;;;6.60;99.90;;;;;;5054145;28;19921;-82
2021/12/18 01:53:26;;;;;;;;;;;6.60;99.90;;;;;;5053655;28;19924;-82
2021/12/18 01:55:52;;;;;;;;;;;6.70;99.90;;;;;;5053775;28;20015;-82
2021/12/18 01:58:21;;;;;;;;;;;6.60;99.90;;;;;;5053786;28;20015;-82
2021/12/18 02:00:48;;;;;;;;;;;6.60;99.90;;;;;;5036622;28;19921;-82
2021/12/18 02:03:13;;;;;;;;;;;6.60;99.90;;;;;;5036549;28;19928;-82
2021/12/18 02:05:39;;;;;;;;;;;6.70;99.90;;;;;;5037260;28;19920;-82
2021/12/18 02:08:05;;;;;;;;;;;6.60;99.90;;;;;;5036858;28;19928;-82
2021/12/18 02:10:42;;;;;;;;;;;6.60;99.90;;;;;;5036761;28;19927;-82
2021/12/18 02:13:22;;;;;;;;;;;6.60;99.90;;;;;;5052861;28;19927;-82
2021/12/18 02:21:19;;;;;;;;;;;6.60;99.90;;;;;;5053242;28;19975;-82
2021/12/18 02:23:45;;;;;;;;;;;6.60;99.90;;;;;;5053154;28;19974;-82
2021/12/18 02:26:12;;;;;;;;;;;6.70;99.90;;;;;;5036359;28;19921;-82
2021/12/18 02:28:38;;;;;;;;;;;6.60;99.90;;;;;;5052675;28;19928;-82
2021/12/18 02:31:04;;;;;;;;;;;6.70;99.90;;;;;;5036752;28;19947;-82
2021/12/18 02:33:29;;;;;;;;;;;6.60;99.90;;;;;;5052892;28;19921;-82
2021/12/18 02:35:58;;;;;;;;;;;6.70;99.90;;;;;;5036441;28;19935;-82
2021/12/18 02:38:30;;;;;;;;;;;6.60;99.90;;;;;;5036388;28;19974;-82
2021/12/18 02:43:29;;;;;;;;;;;6.60;99.90;;;;;;5052329;28;19921;-82
2021/12/18 02:45:59;;;;;;;;;;;6.60;99.90;;;;;;5036160;28;20504;-81
2021/12/18 02:48:25;;;;;;;;;;;6.60;99.90;;;;;;5036178;28;19960;-81
2021/12/18 02:50:51;;;;;;;;;;;6.60;99.90;;;;;;5035954;28;19921;-81
2021/12/18 02:53:17;;;;;;;;;;;6.60;99.90;;;;;;5035688;28;19928;-81
2021/12/18 02:55:42;;;;;;;;;;;6.60;99.90;;;;;;5036193;28;20297;-81
2021/12/18 02:58:08;;;;;;;;;;;6.50;99.90;;;;;;5052555;28;19928;-81
2021/12/18 03:00:33;;;;;;;;;;;6.50;99.90;;;;;;5052457;28;19920;-81
2021/12/18 03:03:04;;;;;;;;;;;6.40;99.90;;;;;;5035625;28;19928;-81
2021/12/18 03:05:36;;;;;;;;;;;6.40;99.90;;;;;;5035802;28;19921;-81
2021/12/18 03:08:10;;;;;;;;;;;6.40;99.90;;;;;;5052422;28;19942;-81
2021/12/18 03:24:21;;;;;;;;;;;6.30;99.90;;;;;;5051577;28;19924;-81
2021/12/18 03:26:47;;;;;;;;;;;6.30;99.90;;;;;;5052123;28;19983;-81
2021/12/18 03:29:12;;;;;;;;;;;6.40;99.90;;;;;;5052016;28;19960;-81
2021/12/18 03:31:38;;;;;;;;;;;6.30;99.90;;;;;;5051981;28;19927;-82
2021/12/18 03:34:03;;;;;;;;;;;6.30;99.90;;;;;;5051839;28;20389;-82
2021/12/18 03:36:29;;;;;;;;;;;6.30;99.90;;;;;;5034776;28;19928;-82
2021/12/18 03:38:54;;;;;;;;;;;6.30;99.90;;;;;;5035988;28;20304;-82
2021/12/18 03:41:20;;;;;;;;;;;6.30;99.90;;;;;;5035302;28;19921;-82
2021/12/18 03:43:45;;;;;;;;;;;6.20;99.90;;;;;;5035141;28;19921;-82
2021/12/18 03:46:11;;;;;;;;;;;6.20;99.90;;;;;;5035327;28;19974;-82
2021/12/18 03:48:36;;;;;;;;;;;6.20;99.90;;;;;;5051876;28;19928;-82
2021/12/18 03:51:02;;;;;;;;;;;6.20;99.90;;;;;;5035564;28;20361;-82
2021/12/18 03:53:28;;;;;;;;;;;6.20;99.90;;;;;;5034421;28;20376;-82
2021/12/18 03:55:53;;;;;;;;;;;6.20;99.90;;;;;;5035338;28;19971;-82
2021/12/18 03:58:19;;;;;;;;;;;6.10;99.90;;;;;;5034936;28;19967;-82
2021/12/18 04:00:44;;;;;;;;;;;6.10;99.90;;;;;;5034732;28;19921;-82
2021/12/18 04:03:10;;;;;;;;;;;6.00;99.90;;;;;;5051367;28;20381;-82
2021/12/18 04:05:35;;;;;;;;;;;6.00;99.90;;;;;;5034585;28;19928;-82
2021/12/18 04:08:08;;;;;;;;;;;6.00;99.90;;;;;;5051682;28;19921;-82
2021/12/18 04:10:35;;;;;;;;;;;5.90;99.90;;;;;;5034801;28;20365;-82
2021/12/18 04:13:00;;;;;;;;;;;6.00;99.90;;;;;;5034712;28;20269;-82
2021/12/18 04:15:26;;;;;;;;;;;5.90;99.90;;;;;;5034826;28;19936;-82
2021/12/18 04:17:51;;;;;;;;;;;5.90;99.90;;;;;;5051087;28;20365;-82
2021/12/18 04:20:17;;;;;;;;;;;5.90;99.90;;;;;;5034694;28;19921;-82
2021/12/18 04:22:42;;;;;;;;;;;5.90;99.90;;;;;;5034505;28;19920;-82
2021/12/18 04:25:08;;;;;;;;;;;5.90;99.90;;;;;;5034485;28;20333;-82
2021/12/18 04:27:33;;;;;;;;;;;6.00;99.90;;;;;;5034617;28;20007;-82
2021/12/18 04:29:59;;;;;;;;;;;6.00;99.90;;;;;;5051069;28;19921;-82
2021/12/18 04:32:24;;;;;;;;;;;6.00;99.90;;;;;;5034245;28;19928;-82
2021/12/18 04:34:50;;;;;;;;;;;6.00;99.90;;;;;;5034234;28;19924;-82
2021/12/18 04:37:15;;;;;;;;;;;6.00;99.90;;;;;;5034561;28;19947;-82
2021/12/18 04:39:41;;;;;;;;;;;5.90;99.90;;;;;;5050465;28;20000;-82
2021/12/18 04:42:06;;;;;;;;;;;5.90;99.90;;;;;;5034598;28;19925;-82
2021/12/18 04:44:32;;;;;;;;;;;5.90;99.90;;;;;;5051188;28;19936;-82
2021/12/18 04:46:57;;;;;;;;;;;5.90;99.90;;;;;;5033958;28;19921;-82
2021/12/18 04:49:23;;;;;;;;;;;5.80;99.90;;;;;;5034452;28;19921;-82
2021/12/18 04:51:48;;;;;;;;;;;5.80;99.90;;;;;;5050638;28;19921;-82
2021/12/18 04:54:14;;;;;;;;;;;5.80;99.90;;;;;;5050996;28;19964;-82
2021/12/18 04:56:39;;;;;;;;;;;5.80;99.90;;;;;;5051363;28;19954;-82
2021/12/18 04:59:05;;;;;;;;;;;5.80;99.90;;;;;;5034033;28;20196;-82
2021/12/18 05:01:36;;;;;;;;;;;5.80;99.90;;;;;;5034117;28;20392;-82
2021/12/18 05:04:03;;;;;;;;;;;5.80;99.90;;;;;;5050716;28;20015;-81
2021/12/18 05:06:31;;;;;;;;;;;5.80;99.90;;;;;;5034520;28;20476;-82
2021/12/18 05:08:56;;;;;;;;;;;5.80;99.90;;;;;;5034328;28;20392;-82
2021/12/18 05:11:22;;;;;;;;;;;5.70;99.90;;;;;;5034120;28;19928;-82
2021/12/18 05:13:47;;;;;;;;;;;5.80;99.90;;;;;;5033505;28;19920;-82
2021/12/18 05:16:13;;;;;;;;;;;5.80;99.90;;;;;;5050588;28;19931;-81
2021/12/18 05:18:38;;;;;;;;;;;5.80;99.90;;;;;;5034117;28;19921;-82
2021/12/18 05:21:03;;;;;;;;;;;5.80;99.90;;;;;;5050845;28;19975;-82
2021/12/18 05:23:30;;;;;;;;;;;5.80;99.90;;;;;;5034015;28;20015;-82
2021/12/18 05:25:55;;;;;;;;;;;5.70;99.90;;;;;;5033847;28;20404;-82
2021/12/18 05:28:21;;;;;;;;;;;5.80;99.90;;;;;;5033939;28;19964;-82
2021/12/18 05:30:46;;;;;;;;;;;5.80;99.90;;;;;;5050484;28;19924;-82
2021/12/18 05:33:12;;;;;;;;;;;5.80;99.90;;;;;;5033529;28;19921;-82
2021/12/18 05:35:39;;;;;;;;;;;5.80;99.90;;;;;;5034228;28;20345;-82
2021/12/18 05:38:04;;;;;;;;;;;5.80;99.90;;;;;;5033535;28;19936;-82
2021/12/18 05:40:31;;;;;;;;;;;5.80;99.90;;;;;;5033231;28;20372;-82
2021/12/18 05:42:57;;;;;;;;;;;5.80;99.90;;;;;;5050323;28;20426;-82
2021/12/18 05:45:22;;;;;;;;;;;5.70;99.90;;;;;;5050776;28;19968;-82
2021/12/18 05:47:48;;;;;;;;;;;5.80;99.90;;;;;;5050278;28;20284;-82
2021/12/18 05:50:14;;;;;;;;;;;5.80;99.90;;;;;;5033701;28;20365;-82
2021/12/18 05:52:40;;;;;;;;;;;5.70;99.90;;;;;;5055084;28;19927;-80
2021/12/18 05:55:06;;;;;;;;;;;5.70;99.90;;;;;;5053006;28;19936;-80
2021/12/18 05:57:32;;;;;;;;;;;5.70;99.90;;;;;;5053244;28;19920;-80
2021/12/18 05:59:57;;;;;;;;;;;5.60;99.90;;;;;;5037190;28;20384;-80
2021/12/18 06:02:23;;;;;;;;;;;5.60;99.90;;;;;;5037361;28;19920;-80
2021/12/18 06:04:48;;;;;;;;;;;5.60;99.90;;;;;;5036712;28;19967;-80
2021/12/18 06:07:28;;;;;;;;;;;5.60;99.90;;;;;;5037076;28;19983;-80
2021/12/18 06:09:54;;;;;;;;;;;5.60;99.90;;;;;;5037227;28;19972;-80
2021/12/18 06:12:20;;;;;;;;;;;5.60;99.90;;;;;;5053584;28;19976;-81
2021/12/18 06:14:46;;;;;;;;;;;5.60;99.90;;;;;;5036823;28;19935;-80
2021/12/18 06:17:11;;;;;;;;;;;5.60;99.90;;;;;;5036878;28;19935;-80
2021/12/18 06:19:37;;;;;;;;;;;5.60;99.90;;;;;;5036712;28;19925;-80
2021/12/18 06:22:02;;;;;;;;;;;5.60;99.90;;;;;;5036816;28;20031;-80
2021/12/18 06:24:28;;;;;;;;;;;5.60;99.90;;;;;;5053181;28;20304;-80
2021/12/18 06:26:54;;;;;;;;;;;5.60;99.90;;;;;;5052998;28;20411;-80
2021/12/18 06:29:19;;;;;;;;;;;5.60;99.90;;;;;;5036734;28;19921;-80
2021/12/18 06:31:45;;;;;;;;;;;5.60;99.90;;;;;;5036456;28;19928;-80
2021/12/18 06:34:12;;;;;;;;;;;5.60;99.90;;;;;;5036167;28;20381;-80
2021/12/18 06:36:38;;;;;;;;;;;5.60;99.90;;;;;;5036442;28;19932;-80
2021/12/18 06:39:03;;;;;;;;;;;5.60;99.90;;;;;;5036334;28;19921;-80
2021/12/18 06:41:29;;;;;;;;;;;5.70;99.90;;;;;;5036402;28;20288;-80
2021/12/18 06:43:54;;;;;;;;;;;5.70;99.90;;;;;;5036124;28;20024;-80
2021/12/18 06:46:20;;;;;;;;;;;5.70;99.90;;;;;;5036419;28;20011;-80
2021/12/18 06:48:45;;;;;;;;;;;5.70;99.90;;;;;;5036384;28;19978;-80
2021/12/18 06:51:11;;;;;;;;;;;5.60;99.90;;;;;;5052211;28;20373;-80
2021/12/18 06:53:36;;;;;;;;;;;5.70;99.90;;;;;;5035651;28;19944;-80
2021/12/18 06:56:03;;;;;;;;;;;5.70;99.90;;;;;;5052824;28;19964;-80
2021/12/18 06:58:29;;;;;;;;;;;5.70;99.90;;;;;;5035864;28;19928;-80
2021/12/18 07:00:55;;;;;;;;;;;5.70;99.90;;;;;;5052701;28;20424;-81
2021/12/18 07:03:20;;;;;;;;;;;5.80;99.90;;;;;;5052219;28;19967;-80
2021/12/18 07:05:46;;;;;;;;;;;5.80;99.90;;;;;;5036268;28;19983;-80
2021/12/18 07:08:12;;;;;;;;;;;5.80;99.90;;;;;;5052375;28;19923;-80
2021/12/18 07:10:37;;;;;;;;;;;5.80;99.90;;;;;;5035715;28;20433;-81
2021/12/18 07:13:03;;;;;;;;;;;5.80;99.90;;;;;;5035568;28;19928;-80
2021/12/18 07:15:28;;;;;;;;;;;5.80;99.90;;;;;;5052492;28;20377;-80
2021/12/18 07:17:54;;;;;;;;;;;5.80;99.90;;;;;;5052592;28;20396;-80
2021/12/18 07:20:20;;;;;;;;;;;5.80;99.90;;;;;;5035496;28;19921;-80
2021/12/18 07:22:45;;;;;;;;;;;5.80;99.90;;;;;;5052519;28;19921;-81
2021/12/18 07:25:11;;;;;;;;;;;5.80;99.90;;;;;;5035623;28;20503;-80
2021/12/18 07:27:36;;;;;;;;;;;5.90;99.90;;;;;;5051932;28;19931;-80
2021/12/18 07:30:03;;;;;;;;;;;5.90;99.90;;;;;;5052050;28;20449;-80
2021/12/18 07:32:29;;;;;;;;;;;5.90;99.90;;;;;;5035218;28;19971;-80
2021/12/18 07:34:55;;;;;;;;;;;5.90;99.90;;;;;;5035259;28;19924;-80
2021/12/18 07:37:22;;;;;;;;;;;5.90;99.90;;;;;;5035300;28;20434;-80
2021/12/18 07:39:47;;;;;;;;;;;5.90;99.90;;;;;;5035096;28;19974;-80
2021/12/18 07:42:13;;;;;;;;;;;5.90;99.90;;;;;;5035082;28;19924;-80
2021/12/18 07:44:40;;;;;;;;;;;5.90;99.90;;;;;;5034864;28;19963;-80
2021/12/18 07:47:06;;;;;;;;;;;6.00;99.90;;;;;;5051631;28;20426;-80
2021/12/18 07:49:31;;;;;;;;;;;6.00;99.90;;;;;;5035133;28;19929;-80
2021/12/18 07:52:01;;;;;;;;;;;6.00;99.90;;;;;;5051684;28;19928;-80
2021/12/18 07:54:27;;;;;;;;;;;6.00;99.90;;;;;;5034638;28;19929;-80
2021/12/18 07:56:53;;;;;;;;;;;6.00;99.90;;;;;;5034957;28;19920;-80
2021/12/18 07:59:18;;;;;;;;;;;6.00;99.90;;;;;;5051884;28;19921;-80
2021/12/18 08:01:44;;;;;;;;;;;6.10;99.90;;;;;;5034690;28;19925;-80
2021/12/18 08:04:09;;;;;;;;;;;6.10;99.90;;;;;;5034906;28;20012;-80
2021/12/18 08:06:35;;;;;;;;;;;6.10;99.90;;;;;;5051400;28;19928;-80
2021/12/18 08:09:00;;;;;;;;;;;6.10;99.90;;;;;;5034338;28;20262;-80
2021/12/18 08:11:26;;;;;;;;;;;6.10;99.90;;;;;;5034593;28;20119;-80
2021/12/18 08:13:51;;;;;;;;;;;6.20;99.90;;;;;;5033063;28;19921;-80
2021/12/18 08:16:16;;;;;;;;;;;6.20;99.90;;;;;;5025668;28;19924;-81
2021/12/18 08:18:42;;;;;;;;;;;6.20;99.90;;;;;;5034826;28;20335;-81
2021/12/18 08:21:07;;;;;;;;;;;6.20;99.90;;;;;;5051115;28;19964;-80
2021/12/18 08:23:33;;;;;;;;;;;6.20;99.90;;;;;;5034090;28;19921;-80
2021/12/18 08:25:58;;;;;;;;;;;6.20;99.90;;;;;;5050632;28;19933;-79
2021/12/18 08:28:24;;;;;;;;;;;6.30;99.90;;;;;;5035021;28;19924;-81
2021/12/18 08:30:49;;;;;;;;;;;6.30;99.90;;;;;;5032245;28;19925;-80
2021/12/18 08:33:15;;;;;;;;;;;6.30;99.90;;;;;;5058089;28;19928;-80
2021/12/18 08:35:40;;;;;;;;;;;6.30;99.90;;;;;;5051243;28;19987;-81
2021/12/18 08:38:06;;;;;;;;;;;6.30;99.90;;;;;;5034779;28;20443;-81
2021/12/18 08:40:31;;;;;;;;;;;6.40;99.90;;;;;;5036252;28;19920;-80
2021/12/18 08:42:57;;;;;;;;;;;6.40;99.90;;;;;;5052176;28;20407;-82
2021/12/18 08:45:25;;;;;;;;;;;6.40;99.90;;;;;;5070746;28;21351;-82
2021/12/18 08:47:50;;;;;;;;;;;6.50;99.90;;;;;;5044565;28;19920;-83
2021/12/18 08:50:17;;;;;;;;;;;6.50;99.90;;;;;;5052803;28;19921;-84
2021/12/18 08:52:44;;;;;;;;;;;6.50;99.90;;;;;;5056401;28;19924;-84
2021/12/18 08:55:09;;;;;;;;;;;6.50;99.90;;;;;;5044023;28;19921;-84
2021/12/18 08:57:35;;;;;;;;;;;6.50;99.90;;;;;;5039431;28;19944;-84
2021/12/18 09:00:01;;;;;;;;;;;6.50;99.90;;;;;;5041222;28;19921;-84
2021/12/18 09:02:26;;;;;;;;;;;6.50;99.90;;;;;;5035231;28;19932;-84
2021/12/18 09:04:52;;;;;;;;;;;6.50;99.90;;;;;;5056016;28;19987;-84
2021/12/18 09:07:17;;;;;;;;;;;6.60;99.90;;;;;;5041793;28;20074;-84
2021/12/18 09:09:43;;;;;;;;;;;6.60;99.90;;;;;;5041747;28;19920;-84
2021/12/18 09:12:09;;;;;;;;;;;6.60;99.90;;;;;;5041767;28;19924;-84
2021/12/18 09:14:35;;;;;;;;;;;6.70;99.90;;;;;;5059656;28;20300;-85
2021/12/18 09:17:00;;;;;;;;;;;6.60;99.90;;;;;;5052159;28;19920;-84
2021/12/18 09:19:26;;;;;;;;;;;6.70;99.90;;;;;;5044471;28;19931;-84
2021/12/18 09:21:51;;;;;;;;;;;6.70;99.90;;;;;;5062698;28;19920;-84
2021/12/18 09:24:17;;;;;;;;;;;6.70;99.90;;;;;;5043345;28;19978;-84
2021/12/18 09:26:42;;;;;;;;;;;6.70;99.90;;;;;;5049164;28;19920;-81
2021/12/18 09:29:08;;;;;;;;;;;6.70;99.90;;;;;;5039395;28;19921;-86
2021/12/18 09:31:34;;;;;;;;;;;6.80;99.90;;;;;;5040144;28;19921;-88
2021/12/18 09:33:59;;;;;;;;;;;6.80;99.90;;;;;;5057607;28;20019;-88
2021/12/18 09:36:24;;;;;;;;;;;6.90;99.90;;;;;;5039838;28;20443;-89
2021/12/18 09:38:50;;;;;;;;;;;6.90;99.90;;;;;;5052079;28;19964;-83
2021/12/18 09:41:15;;;;;;;;;;;6.90;99.90;;;;;;5034858;28;20015;-83
2021/12/18 09:43:41;;;;;;;;;;;6.90;99.90;;;;;;5027880;28;20412;-82
2021/12/18 09:46:09;;;;;;;;;;;7.00;99.90;;;;;;5039305;28;20289;-88
2021/12/18 09:48:38;;;;;;;;;;;7.00;99.90;;;;;;5036679;28;19928;-87
2021/12/18 09:54:44;;;;;;;;;;;7.00;99.90;;;;;;4990624;28;19926;-76
2021/12/18 09:57:43;;;;;;;;;;;7.10;99.90;;;;;;5011646;28;19928;-76
2021/12/18 10:00:21;;;;;;;;;;;7.10;99.90;;;;;;5003356;28;19933;-75
2021/12/18 10:03:32;;;;;;;;;;;7.20;99.90;;;;;;5020794;28;20316;-78
2021/12/18 10:06:34;;;;;;;;;;;7.20;99.90;;;;;;4978602;28;19925;-82
2021/12/18 10:09:14;;;;;;;;;;;7.20;99.90;;;;;;4989131;28;19926;-79
2021/12/18 10:11:51;;;;;;;;;;;7.30;99.90;;;;;;5039634;28;19967;-77
2021/12/18 10:14:31;;;;;;;;;;;7.30;99.90;;;;;;5023792;28;19972;-78
2021/12/18 10:16:59;;;;;;;;;;;7.40;99.90;;;;;;5033375;28;19938;-78
2021/12/18 10:19:26;;;;;;;;;;;7.40;99.90;;;;;;5014364;28;20332;-78
2021/12/18 10:22:11;;;;;;;;;;;7.40;99.90;;;;;;5017147;28;19940;-78
2021/12/18 10:24:44;;;;;;;;;;;7.40;99.90;;;;;;4983774;28;20028;-78
2021/12/18 10:27:20;;;;;;;;;;;7.50;99.90;;;;;;5021601;28;19921;-78
2021/12/18 10:29:54;;;;;;;;;;;7.50;99.90;;;;;;5023765;28;20400;-76
2021/12/18 10:32:23;;;;;;;;;;;7.60;99.90;;;;;;5014835;28;19922;-76
2021/12/18 10:34:54;;;;;;;;;;;7.70;99.90;;;;;;5024865;28;19926;-79
2021/12/18 10:37:26;;;;;;;;;;;7.70;99.90;;;;;;5033322;28;20329;-76
2021/12/18 10:39:57;;;;;;;;;;;7.80;99.90;;;;;;5018292;28;19926;-77
2021/12/18 10:42:27;;;;;;;;;;;7.80;99.90;;;;;;5056161;28;19921;-79
2021/12/18 10:45:15;;;;;;;;;;;7.80;99.90;;;;;;5021988;28;20009;-76
2021/12/18 10:47:52;;;;;;;;;;;7.90;99.90;;;;;;5015586;28;19921;-77
2021/12/18 10:50:27;;;;;;;;;;;7.90;99.90;;;;;;4990520;28;19929;-76
2021/12/18 10:52:55;;;;;;;;;;;7.90;99.90;;;;;;5001937;28;19957;-76
2021/12/18 10:55:42;;;;;;;;;;;8.00;99.90;;;;;;5020134;28;19932;-77
2021/12/18 10:58:10;;;;;;;;;;;8.00;99.90;;;;;;4995500;28;19928;-77
2021/12/18 11:00:45;;;;;;;;;;;8.10;99.90;;;;;;5027648;28;19926;-77
2021/12/18 11:03:43;;;;;;;;;;;;;;;;;;;;;
2021/12/18 11:06:23;;;;;;;;;;;8.10;99.90;;;;;;5022891;28;19922;-77
2021/12/18 11:09:27;;;;;;;;;;;8.20;99.90;;;;;;5027838;28;19921;-77
2021/12/18 11:14:32;;;;;;;;;;;8.20;99.90;;;;;;5018302;28;19934;-77
2021/12/18 11:17:03;;;;;;;;;;;8.20;99.90;;;;;;5016317;28;20049;-77
2021/12/18 11:19:29;;;;;;;;;;;8.30;99.90;;;;;;4986504;28;19929;-77
2021/12/18 11:21:59;;;;;;;;;;;8.30;99.90;;;;;;4987045;28;20003;-77
2021/12/18 11:27:42;;;;;;;;;;;8.30;99.90;;;;;;5006673;28;19925;-79
2021/12/18 11:30:17;;;;;;;;;;;8.30;99.90;;;;;;5049652;28;19929;-79
2021/12/18 11:32:54;;;;;;;;;;;8.40;99.90;;;;;;4995931;28;19921;-78
2021/12/18 11:35:36;;;;;;;;;;;8.40;99.90;;;;;;5028152;28;19933;-77
2021/12/18 11:38:12;;;;;;;;;;;8.40;99.90;;;;;;5021129;28;19922;-77
2021/12/18 11:40:41;;;;;;;;;;;8.50;99.90;;;;;;5017578;28;19928;-77
2021/12/18 11:43:26;;;;;;;;;;;8.50;99.90;;;;;;5028323;28;19929;-77
2021/12/18 11:45:55;;;;;;;;;;;8.60;99.90;;;;;;5027246;28;19932;-77
2021/12/18 11:48:22;;;;;;;;;;;8.60;99.90;;;;;;5026533;28;19941;-77
2021/12/18 11:53:43;;;;;;;;;;;8.70;99.90;;;;;;4995716;28;20058;-77
2021/12/18 11:56:15;;;;;;;;;;;8.60;99.90;;;;;;5036617;28;19925;-78
2021/12/18 11:58:55;;;;;;;;;;;8.70;99.90;;;;;;5018902;28;19928;-77
2021/12/18 12:01:30;;;;;;;;;;;8.80;99.90;;;;;;5027443;28;19975;-77
2021/12/18 12:04:09;;;;;;;;;;;8.80;99.90;;;;;;5023668;28;19988;-77
2021/12/18 12:06:46;;;;;;;;;;;8.80;99.90;;;;;;5041281;28;19940;-77
2021/12/18 12:12:10;;;;;;;;;;;;;;;;;;;;;
2021/12/18 12:14:39;;;;;;;;;;;8.70;99.90;;;;;;4982704;28;20350;-77
2021/12/18 12:17:25;;;;;;;;;;;8.70;99.90;;;;;;4975121;28;20013;-77
2021/12/18 12:20:06;;;;;;;;;;;8.70;99.90;;;;;;5018826;28;20270;-77
2021/12/18 12:22:53;;;;;;;;;;;8.70;99.90;;;;;;4972587;28;20004;-77
2021/12/18 12:25:45;;;;;;;;;;;8.60;99.90;;;;;;4976644;28;19937;-77
2021/12/18 12:28:16;;;;;;;;;;;8.70;99.90;;;;;;4988698;28;19922;-77
2021/12/18 12:30:54;;;;;;;;;;;8.60;99.90;;;;;;4987994;28;19922;-77
2021/12/18 12:33:26;;;;;;;;;;;8.60;99.90;;;;;;4988559;28;20081;-77
2021/12/18 12:36:04;;;;;;;;;;;8.50;99.90;;;;;;5002373;28;19926;-77
2021/12/18 12:38:35;;;;;;;;;;;8.50;99.90;;;;;;4959097;28;19922;-77
2021/12/18 12:41:28;;;;;;;;;;;8.50;99.90;;;;;;4997986;28;19930;-77
2021/12/18 12:44:00;;;;;;;;;;;8.40;99.90;;;;;;5016043;28;20317;-77
2021/12/18 12:46:28;;;;;;;;;;;8.50;99.90;;;;;;4998319;28;19926;-77
2021/12/18 12:49:23;;;;;;;;;;;8.40;99.90;;;;;;4989340;28;19953;-77
2021/12/18 12:52:04;;;;;;;;;;;8.40;99.90;;;;;;4991352;28;19921;-77
2021/12/18 12:54:45;;;;;;;;;;;8.50;99.90;;;;;;4995767;28;19926;-77
2021/12/18 12:57:31;;;;;;;;;;;8.50;99.90;;;;;;5010142;28;20009;-77
2021/12/18 13:00:06;;;;;;;;;;;8.50;99.90;;;;;;5007750;28;20337;-77
2021/12/18 13:03:03;;;;;;;;;;;8.50;99.90;;;;;;4979256;28;19965;-77
2021/12/18 13:05:58;;;;;;;;;;;8.50;99.90;;;;;;4976838;28;19922;-77
2021/12/18 13:08:56;;;;;;;;;;;8.50;99.90;;;;;;5007733;28;19929;-78
2021/12/18 13:11:33;;;;;;;;;;;8.50;99.90;;;;;;5006926;28;20373;-78
2021/12/18 13:14:15;;;;;;;;;;;8.50;99.90;;;;;;4970875;28;19922;-77
2021/12/18 13:16:49;;;;;;;;;;;8.50;99.90;;;;;;4994696;28;20013;-77
2021/12/18 13:22:37;;;;;;;;;;;8.50;99.90;;;;;;4987262;28;20366;-78
2021/12/18 13:28:58;;;;;;;;;;;8.50;99.90;;;;;;4991081;28;21130;-76
2021/12/18 13:36:05;;;;;;;;;;;;;;;;;;;;;
2021/12/18 13:39:21;;;;;;;;;;;8.50;99.90;;;;;;4991631;28;20012;-78
2021/12/18 13:42:25;;;;;;;;;;;8.50;99.90;;;;;;4977957;28;19966;-78
2021/12/18 13:49:18;;;;;;;;;;;;;;;;;;;;;
2021/12/18 13:55:47;;;;;;;;;;;8.40;99.90;;;;;;4859975;29;20392;-78
2021/12/18 14:04:41;;;;;;;;;;;;;;;;;;;;;
2021/12/18 14:07:44;;;;;;;;;;;8.40;99.90;;;;;;5007869;28;20345;-77
2021/12/18 14:17:18;;;;;;;;;;;8.40;99.90;;;;;;4981556;28;19932;-76
2021/12/18 14:20:19;;;;;;;;;;;8.40;99.90;;;;;;4999617;28;19933;-76
2021/12/18 14:23:27;;;;;;;;;;;;;;;;;;;;;
2021/12/18 14:26:14;;;;;;;;;;;8.40;99.90;;;;;;4974509;28;19997;-86
2021/12/18 14:28:40;;;;;;;;;;;8.40;99.90;;;;;;4971312;28;19930;-86
2021/12/18 14:31:45;;;;;;;;;;;8.30;99.90;;;;;;4956191;28;19937;-85
2021/12/18 14:34:13;;;;;;;;;;;8.30;99.90;;;;;;4892150;29;19927;-84
2021/12/18 14:36:39;;;;;;;;;;;8.30;99.90;;;;;;4909372;29;19971;-84
2021/12/18 14:39:04;;;;;;;;;;;8.30;99.90;;;;;;4937719;28;19922;-85
2021/12/18 14:41:32;;;;;;;;;;;8.30;99.90;;;;;;4959032;28;20393;-84
2021/12/18 14:44:02;;;;;;;;;;;8.30;99.90;;;;;;4963469;28;19926;-84
2021/12/18 14:46:28;;;;;;;;;;;8.30;99.90;;;;;;4980307;28;19926;-84
2021/12/18 14:48:53;;;;;;;;;;;8.30;99.90;;;;;;4974180;28;19922;-84
2021/12/18 14:51:26;;;;;;;;;;;8.20;99.90;;;;;;4960543;28;19926;-84
2021/12/18 14:53:58;;;;;;;;;;;8.20;99.90;;;;;;4957640;28;19930;-84
2021/12/18 14:56:24;;;;;;;;;;;8.20;99.90;;;;;;4958051;28;19929;-84
2021/12/18 14:58:50;;;;;;;;;;;8.20;99.90;;;;;;4974235;28;19955;-83
2021/12/18 15:01:18;;;;;;;;;;;8.20;99.90;;;;;;4957671;28;19968;-84
2021/12/18 15:03:48;;;;;;;;;;;8.10;99.90;;;;;;4957728;28;19922;-84
2021/12/18 15:06:20;;;;;;;;;;;8.10;99.90;;;;;;4958329;28;19922;-84
2021/12/18 15:08:47;;;;;;;;;;;8.10;99.90;;;;;;4968423;28;20077;-84
2021/12/18 15:11:14;;;;;;;;;;;8.10;99.90;;;;;;4958071;28;20382;-84
2021/12/18 15:13:45;;;;;;;;;;;8.10;99.90;;;;;;4957355;28;19933;-84
2021/12/18 15:16:12;;;;;;;;;;;8.10;99.90;;;;;;4957871;28;19922;-84
2021/12/18 15:18:38;;;;;;;;;;;8.10;99.90;;;;;;4957948;28;20138;-84
2021/12/18 15:21:04;;;;;;;;;;;8.10;99.90;;;;;;4957395;28;19922;-83
2021/12/18 15:23:30;;;;;;;;;;;8.10;99.90;;;;;;4956777;28;19969;-85
2021/12/18 15:25:55;;;;;;;;;;;8.10;99.90;;;;;;4955183;28;19961;-85
2021/12/18 15:28:21;;;;;;;;;;;8.00;99.90;;;;;;4983462;28;20377;-84
2021/12/18 15:30:46;;;;;;;;;;;8.00;99.90;;;;;;4971521;28;20000;-84
2021/12/18 15:33:12;;;;;;;;;;;8.00;99.90;;;;;;4966371;28;19930;-85
2021/12/18 15:35:37;;;;;;;;;;;8.00;99.90;;;;;;4964189;28;20566;-85
2021/12/18 15:38:03;;;;;;;;;;;8.00;99.90;;;;;;4970743;28;19991;-85
2021/12/18 15:40:29;;;;;;;;;;;8.00;99.90;;;;;;4957721;28;19980;-84
2021/12/18 15:42:54;;;;;;;;;;;8.00;99.90;;;;;;4957533;28;20378;-85
2021/12/18 15:45:19;;;;;;;;;;;8.00;99.90;;;;;;4957572;28;19922;-84
2021/12/18 15:47:45;;;;;;;;;;;8.00;99.90;;;;;;4969012;28;19961;-85
2021/12/18 15:50:11;;;;;;;;;;;8.00;99.90;;;;;;4957319;28;19977;-85
2021/12/18 15:52:36;;;;;;;;;;;8.00;99.90;;;;;;4957099;28;19933;-85
2021/12/18 15:55:02;;;;;;;;;;;7.90;99.90;;;;;;4955336;28;19922;-85
2021/12/18 15:57:28;;;;;;;;;;;8.00;99.90;;;;;;4974957;28;19922;-85
2021/12/18 15:59:53;;;;;;;;;;;7.90;99.90;;;;;;4956800;28;20405;-84
2021/12/18 16:02:19;;;;;;;;;;;7.90;99.90;;;;;;4956607;28;20045;-85
2021/12/18 16:04:44;;;;;;;;;;;7.90;99.90;;;;;;4953451;28;19933;-85
2021/12/18 16:07:10;;;;;;;;;;;7.90;99.90;;;;;;4954109;29;19941;-84
2021/12/18 16:09:35;;;;;;;;;;;7.90;99.90;;;;;;4937649;29;19990;-85
2021/12/18 16:12:01;;;;;;;;;;;7.90;99.90;;;;;;4937743;29;20346;-85
2021/12/18 16:14:26;;;;;;;;;;;7.90;99.90;;;;;;4969047;28;19921;-84
2021/12/18 16:16:52;;;;;;;;;;;7.80;99.90;;;;;;4957099;28;19922;-84